createdAt,value
2022-12-09T00:01:40.376Z,0.48
2022-12-09T00:04:07.339Z,0.51
2022-12-09T00:06:35.230Z,0.51
2022-12-09T00:09:02.107Z,0.49
2022-12-09T00:11:28.873Z,0.53
2022-12-09T00:13:57.403Z,0.55
2022-12-09T00:16:25.575Z,0.49
2022-12-09T00:18:53.804Z,0.46
2022-12-09T00:21:23.170Z,0.46
2022-12-09T00:23:50.872Z,0.40
2022-12-09T00:26:18.349Z,0.38
2022-12-09T00:28:45.501Z,0.28
2022-12-09T00:31:14.247Z,0.19
2022-12-09T00:33:41.344Z,0.17
2022-12-09T00:36:11.285Z,0.20
2022-12-09T00:38:39.200Z,0.23
2022-12-09T00:41:06.195Z,0.24
2022-12-09T00:43:33.214Z,0.19
2022-12-09T00:45:59.988Z,0.16
2022-12-09T00:48:27.768Z,0.20
2022-12-09T00:50:54.975Z,0.18
2022-12-09T00:53:23.045Z,0.18
2022-12-09T00:55:49.786Z,0.14
2022-12-09T00:58:16.607Z,0.14
2022-12-09T01:00:43.734Z,0.22
2022-12-09T01:03:13.057Z,0.21
2022-12-09T01:05:40.464Z,0.17
2022-12-09T01:08:07.715Z,0.18
2022-12-09T01:10:36.498Z,0.09
2022-12-09T01:13:03.604Z,0.12
2022-12-09T01:15:30.702Z,0.13
2022-12-09T01:17:57.814Z,0.14
2022-12-09T01:20:24.667Z,0.20
2022-12-09T01:22:51.494Z,0.22
2022-12-09T01:25:18.367Z,0.20
2022-12-09T01:27:46.872Z,0.18
2022-12-09T01:30:14.628Z,0.19
2022-12-09T01:32:41.776Z,0.23
2022-12-09T01:35:09.345Z,0.22
2022-12-09T01:37:37.397Z,0.19
2022-12-09T01:40:06.947Z,0.14
2022-12-09T01:42:34.571Z,0.16
2022-12-09T01:45:39.070Z,0.18
2022-12-09T01:48:11.177Z,0.15
2022-12-09T01:50:39.670Z,0.13
2022-12-09T01:53:07.449Z,0.14
2022-12-09T01:55:36.290Z,0.10
2022-12-09T01:58:04.330Z,0.06
2022-12-09T02:00:31.269Z,0.13
2022-12-09T02:03:01.090Z,0.15
2022-12-09T02:05:30.361Z,0.20
2022-12-09T02:07:57.369Z,0.24
2022-12-09T02:10:24.737Z,0.22
2022-12-09T02:13:01.073Z,0.23
2022-12-09T02:15:34.395Z,0.18
2022-12-09T02:18:06.180Z,0.18
2022-12-09T02:20:39.074Z,0.20
2022-12-09T02:23:12.204Z,0.14
2022-12-09T02:25:45.512Z,0.11
2022-12-09T02:28:43.142Z,0.12
2022-12-09T02:31:23.075Z,-0.01
2022-12-09T02:34:13.144Z,-0.13
2022-12-09T02:36:52.575Z,-0.05
2022-12-09T02:39:23.087Z,-0.05
2022-12-09T02:41:52.132Z,-0.04
2022-12-09T02:44:22.313Z,-0.06
2022-12-09T02:46:49.900Z,-0.05
2022-12-09T02:49:21.406Z,-0.06
2022-12-09T02:51:50.118Z,-0.01
2022-12-09T02:54:19.542Z,-0.01
2022-12-09T02:56:52.893Z,-0.09
2022-12-09T02:59:19.648Z,-0.10
2022-12-09T03:01:51.436Z,-0.12
2022-12-09T03:04:23.977Z,-0.10
2022-12-09T03:07:07.901Z,-0.13
2022-12-09T03:09:40.774Z,-0.13
2022-12-09T03:12:10.941Z,-0.10
2022-12-09T03:14:42.837Z,-0.15
2022-12-09T03:17:15.036Z,-0.18
2022-12-09T03:19:47.257Z,-0.24
2022-12-09T03:22:16.871Z,-0.18
2022-12-09T03:24:50.367Z,-0.14
2022-12-09T03:27:21.910Z,-0.19
2022-12-09T03:29:50.995Z,-0.19
2022-12-09T03:32:21.138Z,-0.12
2022-12-09T03:34:54.117Z,-0.20
2022-12-09T03:37:21.933Z,-0.23
2022-12-09T03:39:51.333Z,-0.27
2022-12-09T03:42:21.353Z,-0.21
2022-12-09T03:44:52.362Z,-0.18
2022-12-09T03:47:19.611Z,-0.14
2022-12-09T03:49:46.552Z,-0.18
2022-12-09T03:52:20.380Z,-0.14
2022-12-09T03:54:49.829Z,-0.12
2022-12-09T03:57:19.872Z,-0.09
2022-12-09T03:59:51.998Z,-0.12
2022-12-09T04:02:18.968Z,-0.14
2022-12-09T04:04:45.995Z,-0.13
2022-12-09T04:07:12.945Z,-0.13
2022-12-09T04:09:41.386Z,-0.14
2022-12-09T04:12:08.404Z,-0.12
2022-12-09T04:14:35.284Z,-0.17
2022-12-09T04:17:02.420Z,-0.15
2022-12-09T04:19:29.614Z,-0.12
2022-12-09T04:21:56.608Z,-0.13
2022-12-09T04:24:23.330Z,-0.11
2022-12-09T04:26:51.498Z,-0.24
2022-12-09T04:29:18.364Z,-0.19
2022-12-09T04:31:45.434Z,-0.19
2022-12-09T04:34:12.285Z,-0.20
2022-12-09T04:36:39.441Z,-0.17
2022-12-09T04:39:06.876Z,-0.20
2022-12-09T04:41:33.722Z,-0.19
2022-12-09T04:44:02.532Z,-0.16
2022-12-09T04:46:29.335Z,-0.18
2022-12-09T04:48:56.323Z,-0.23
2022-12-09T04:51:23.474Z,-0.29
2022-12-09T04:53:52.770Z,-0.35
2022-12-09T04:56:21.463Z,-0.35
2022-12-09T04:58:49.936Z,-0.39
2022-12-09T05:01:23.680Z,-0.38
2022-12-09T05:03:55.492Z,-0.39
2022-12-09T05:06:23.090Z,-0.36
2022-12-09T05:08:51.332Z,-0.47
2022-12-09T05:11:20.055Z,-0.49
2022-12-09T05:13:47.476Z,-0.46
2022-12-09T05:16:17.351Z,-0.42
2022-12-09T05:18:47.321Z,-0.41
2022-12-09T05:21:16.645Z,-0.45
2022-12-09T05:23:43.738Z,-0.47
2022-12-09T05:26:13.333Z,-0.42
2022-12-09T05:28:40.300Z,-0.42
2022-12-09T05:31:10.053Z,-0.46
2022-12-09T05:33:37.663Z,-0.46
2022-12-09T05:36:09.898Z,-0.44
2022-12-09T05:38:37.027Z,-0.47
2022-12-09T05:41:04.063Z,-0.46
2022-12-09T05:43:31.703Z,-0.48
2022-12-09T05:45:58.969Z,-0.46
2022-12-09T05:48:25.813Z,-0.49
2022-12-09T05:50:59.630Z,-0.50
2022-12-09T05:53:28.488Z,-0.48
2022-12-09T05:55:55.710Z,-0.42
2022-12-09T05:58:22.935Z,-0.42
2022-12-09T06:00:50.206Z,-0.43
2022-12-09T06:03:17.270Z,-0.50
2022-12-09T06:05:44.564Z,-0.46
2022-12-09T06:08:12.051Z,-0.45
2022-12-09T06:10:41.396Z,-0.44
2022-12-09T06:13:08.784Z,-0.39
2022-12-09T06:15:36.151Z,-0.39
2022-12-09T06:18:03.306Z,-0.44
2022-12-09T06:20:30.779Z,-0.41
2022-12-09T06:22:57.729Z,-0.37
2022-12-09T06:25:24.750Z,-0.37
2022-12-09T06:27:54.042Z,-0.40
2022-12-09T06:30:21.120Z,-0.30
2022-12-09T06:32:48.331Z,-0.24
2022-12-09T06:35:15.933Z,-0.25
2022-12-09T06:37:43.609Z,-0.27
2022-12-09T06:40:11.819Z,-0.21
2022-12-09T06:42:38.965Z,-0.22
2022-12-09T06:45:08.541Z,-0.29
2022-12-09T06:47:36.058Z,-0.26
2022-12-09T06:50:07.089Z,-0.22
2022-12-09T06:52:35.171Z,-0.22
2022-12-09T06:55:02.269Z,-0.19
2022-12-09T06:57:29.364Z,-0.17
2022-12-09T06:59:56.239Z,-0.14
2022-12-09T07:02:24.780Z,-0.08
2022-12-09T07:04:52.711Z,-0.05
2022-12-09T07:07:20.409Z,-0.01
2022-12-09T07:09:48.693Z,0.02
2022-12-09T07:12:15.571Z,-0.05
2022-12-09T07:14:42.442Z,-0.03
2022-12-09T07:17:15.853Z,-0.05
2022-12-09T07:19:44.396Z,-0.02
2022-12-09T07:22:12.093Z,-0.09
2022-12-09T07:24:39.998Z,-0.08
2022-12-09T07:27:11.843Z,-0.11
2022-12-09T07:29:41.387Z,-0.07
2022-12-09T07:32:10.064Z,-0.06
2022-12-09T07:34:37.280Z,-0.01
2022-12-09T07:37:05.843Z,0.01
2022-12-09T07:39:32.949Z,-0.07
2022-12-09T07:42:00.166Z,-0.03
2022-12-09T07:44:28.382Z,-0.05
2022-12-09T07:46:55.990Z,-0.01
2022-12-09T07:49:23.301Z,-0.02
2022-12-09T07:51:50.245Z,0.01
2022-12-09T07:54:20.074Z,0.02
2022-12-09T07:56:47.878Z,0.05
2022-12-09T07:59:15.479Z,0.11
2022-12-09T08:01:42.958Z,0.18
2022-12-09T08:04:10.378Z,0.22
2022-12-09T08:06:37.982Z,0.22
2022-12-09T08:09:07.405Z,0.21
2022-12-09T08:11:36.703Z,0.26
2022-12-09T08:14:11.448Z,0.27
2022-12-09T08:16:40.482Z,0.30
2022-12-09T08:19:08.085Z,0.26
2022-12-09T08:21:35.275Z,0.30
2022-12-09T08:24:06.013Z,0.32
2022-12-09T08:26:35.184Z,0.29
2022-12-09T08:29:07.405Z,0.34
2022-12-09T08:31:40.330Z,0.39
2022-12-09T08:34:08.239Z,0.46
2022-12-09T08:36:36.929Z,0.45
2022-12-09T08:39:05.078Z,0.57
2022-12-09T08:41:38.444Z,0.60
2022-12-09T08:44:10.416Z,0.48
2022-12-09T08:46:39.432Z,0.39
2022-12-09T08:49:07.404Z,0.40
2022-12-09T08:51:35.004Z,0.50
2022-12-09T08:54:02.451Z,0.49
2022-12-09T08:56:30.064Z,0.51
2022-12-09T08:58:57.235Z,0.54
2022-12-09T09:01:32.255Z,0.53
2022-12-09T09:04:01.393Z,0.47
2022-12-09T09:06:28.456Z,0.46
2022-12-09T09:08:56.637Z,0.41
2022-12-09T09:11:24.529Z,0.45
2022-12-09T09:13:52.445Z,0.32
2022-12-09T09:16:21.658Z,0.21
2022-12-09T09:18:50.953Z,0.22
2022-12-09T09:21:21.867Z,0.23
2022-12-09T09:23:48.908Z,0.29
2022-12-09T09:26:18.568Z,0.17
2022-12-09T09:28:46.062Z,0.47
2022-12-09T09:31:15.152Z,0.62
2022-12-09T09:33:42.573Z,0.73
2022-12-09T09:36:16.311Z,0.78
2022-12-09T09:38:43.269Z,0.74
2022-12-09T09:41:20.986Z,0.54
2022-12-09T09:43:47.943Z,0.47
2022-12-09T09:46:20.887Z,0.41
2022-12-09T09:48:49.722Z,0.37
2022-12-09T09:51:21.179Z,0.62
2022-12-09T09:53:50.650Z,0.65
2022-12-09T09:56:26.246Z,0.46
2022-12-09T09:59:05.262Z,0.36
2022-12-09T10:01:36.021Z,0.44
2022-12-09T10:04:18.413Z,0.59
2022-12-09T10:06:52.157Z,0.62
2022-12-09T10:09:24.846Z,0.77
2022-12-09T10:11:58.581Z,0.99
2022-12-09T10:14:38.085Z,1.04
2022-12-09T10:17:20.427Z,1.04
2022-12-09T10:19:50.385Z,1.04
2022-12-09T10:22:23.314Z,1.02
2022-12-09T10:24:52.809Z,0.90
2022-12-09T10:27:30.620Z,0.89
2022-12-09T10:30:00.801Z,0.78
2022-12-09T10:32:33.584Z,0.57
2022-12-09T10:35:01.657Z,0.63
2022-12-09T10:37:33.030Z,0.66
2022-12-09T10:40:21.438Z,0.46
2022-12-09T10:43:09.496Z,0.50
2022-12-09T10:46:15.533Z,0.59
2022-12-09T10:48:34.428Z,0.65
2022-12-09T10:51:05.073Z,0.67
2022-12-09T10:53:36.008Z,0.66
2022-12-09T10:56:04.127Z,0.60
2022-12-09T10:58:32.018Z,0.73
2022-12-09T11:01:07.858Z,0.88
2022-12-09T11:03:38.914Z,0.95
2022-12-09T11:06:18.701Z,0.81
2022-12-09T11:08:53.520Z,0.86
2022-12-09T11:11:21.492Z,1.14
2022-12-09T11:13:48.771Z,1.20
2022-12-09T11:16:15.876Z,1.11
2022-12-09T11:18:46.158Z,1.08
2022-12-09T11:21:33.749Z,1.20
2022-12-09T11:24:04.469Z,1.31
2022-12-09T11:26:35.752Z,1.14
2022-12-09T11:29:06.093Z,1.03
2022-12-09T11:31:38.154Z,1.10
2022-12-09T11:34:14.674Z,1.56
2022-12-09T11:36:46.877Z,1.69
2022-12-09T11:39:23.711Z,1.72
2022-12-09T11:42:16.649Z,1.72
2022-12-09T11:44:52.162Z,1.31
2022-12-09T11:47:27.225Z,1.14
2022-12-09T11:50:00.371Z,0.90
2022-12-09T11:52:29.834Z,0.88
2022-12-09T11:55:13.771Z,0.90
2022-12-09T11:57:45.782Z,1.03
2022-12-09T12:00:22.341Z,1.11
2022-12-09T12:02:57.108Z,1.08
2022-12-09T12:05:28.225Z,0.85
2022-12-09T12:08:06.796Z,0.76
2022-12-09T12:10:39.286Z,0.73
2022-12-09T12:13:16.193Z,0.85
2022-12-09T12:15:49.859Z,0.82
2022-12-09T12:18:19.968Z,0.72
2022-12-09T12:21:09.909Z,0.71
2022-12-09T12:24:12.145Z,0.66
2022-12-09T12:26:46.582Z,0.60
2022-12-09T12:29:31.079Z,0.50
2022-12-09T12:32:14.971Z,0.45
2022-12-09T12:34:54.303Z,0.44
2022-12-09T12:37:34.044Z,0.50
2022-12-09T12:40:08.295Z,0.46
2022-12-09T12:43:10.415Z,0.44
2022-12-09T12:46:06.909Z,0.40
2022-12-09T12:48:47.444Z,0.27
2022-12-09T12:51:25.361Z,0.26
2022-12-09T12:53:58.904Z,0.26
2022-12-09T12:56:32.715Z,0.26
2022-12-09T12:59:09.403Z,0.18
2022-12-09T13:01:52.537Z,0.13
2022-12-09T13:04:24.356Z,0.09
2022-12-09T13:06:57.048Z,0.10
2022-12-09T13:09:31.166Z,0.10
2022-12-09T13:12:04.390Z,0.04
2022-12-09T13:14:37.365Z,0.05
2022-12-09T13:17:07.759Z,-0.02
2022-12-09T13:19:40.322Z,-0.10
2022-12-09T13:22:16.167Z,-0.14
2022-12-09T13:24:55.375Z,-0.14
2022-12-09T13:27:34.676Z,-0.16
2022-12-09T13:30:06.938Z,-0.15
2022-12-09T13:32:58.595Z,-0.14
2022-12-09T13:35:33.361Z,-0.04
2022-12-09T13:38:00.883Z,0.03
2022-12-09T13:40:36.468Z,0.13
2022-12-09T13:43:21.355Z,0.24
2022-12-09T13:45:55.706Z,0.26
2022-12-09T13:48:44.700Z,0.23
2022-12-09T13:51:13.208Z,0.26
2022-12-09T13:53:46.876Z,0.21
2022-12-09T13:56:26.906Z,0.21
2022-12-09T13:59:39.393Z,0.20
2022-12-09T14:02:28.698Z,0.20
2022-12-09T14:05:06.929Z,0.14
2022-12-09T14:07:39.196Z,0.11
2022-12-09T14:10:07.330Z,0.08
2022-12-09T14:13:04.419Z,0.09
2022-12-09T14:15:37.678Z,0.13
2022-12-09T14:18:27.631Z,0.23
2022-12-09T14:21:29.531Z,0.25
2022-12-09T14:24:39.653Z,0.09
2022-12-09T14:27:12.662Z,-0.02
2022-12-09T14:29:52.700Z,-0.15
2022-12-09T14:32:22.130Z,-0.14
2022-12-09T14:35:03.999Z,-0.26
2022-12-09T14:37:48.693Z,-0.30
2022-12-09T14:40:26.572Z,-0.31
2022-12-09T14:43:01.201Z,-0.54
2022-12-09T14:45:36.083Z,-0.45
2022-12-09T14:48:09.305Z,-0.55
2022-12-09T14:50:42.446Z,-0.58
2022-12-09T14:53:21.779Z,-0.58
2022-12-09T14:55:49.297Z,-0.52
2022-12-09T14:58:20.198Z,-0.65
2022-12-09T15:00:47.430Z,-0.69
2022-12-09T15:03:42.792Z,-0.78
2022-12-09T15:06:13.042Z,-0.81
2022-12-09T15:08:41.277Z,-0.79
2022-12-09T15:11:11.467Z,-0.77
2022-12-09T15:13:40.778Z,-0.79
2022-12-09T15:16:10.066Z,-0.80
2022-12-09T15:18:39.301Z,-0.77
2022-12-09T15:21:08.091Z,-0.76
2022-12-09T15:23:37.994Z,-0.75
2022-12-09T15:26:07.314Z,-0.79
2022-12-09T15:28:35.794Z,-0.78
2022-12-09T15:31:05.143Z,-0.83
2022-12-09T15:33:40.942Z,-0.85
2022-12-09T15:36:11.637Z,-0.88
2022-12-09T15:38:41.946Z,-0.93
2022-12-09T15:41:28.758Z,-0.86
2022-12-09T15:44:01.459Z,-0.86
2022-12-09T15:46:30.646Z,-0.79
2022-12-09T15:49:00.241Z,-0.84
2022-12-09T15:51:29.084Z,-0.77
2022-12-09T15:53:59.047Z,-0.78
2022-12-09T15:56:30.412Z,-0.76
2022-12-09T15:59:06.634Z,-0.85
2022-12-09T16:01:34.775Z,-0.85
2022-12-09T16:04:03.691Z,-0.89
2022-12-09T16:06:38.277Z,-0.84
2022-12-09T16:09:12.294Z,-0.85
2022-12-09T16:11:41.618Z,-0.83
2022-12-09T16:14:10.348Z,-0.84
2022-12-09T16:16:44.818Z,-0.91
2022-12-09T16:19:26.107Z,-1.02
2022-12-09T16:21:57.202Z,-1.10
2022-12-09T16:24:38.715Z,-1.08
2022-12-09T16:27:19.287Z,-1.03
2022-12-09T16:29:50.251Z,-1.00
2022-12-09T16:32:22.775Z,-1.07
2022-12-09T16:34:52.318Z,-0.97
2022-12-09T16:37:30.370Z,-0.90
2022-12-09T16:39:58.329Z,-1.07
2022-12-09T16:42:30.052Z,-1.07
2022-12-09T16:45:23.770Z,-0.96
2022-12-09T16:47:53.672Z,-1.10
2022-12-09T16:50:20.862Z,-1.07
2022-12-09T16:52:49.383Z,-1.06
2022-12-09T16:55:19.921Z,-1.06
2022-12-09T16:57:46.896Z,-1.06
2022-12-09T17:00:15.165Z,-1.05
2022-12-09T17:02:45.665Z,-1.02
2022-12-09T17:05:12.490Z,-1.02
2022-12-09T17:07:39.133Z,-1.04
2022-12-09T17:10:08.294Z,-1.02
2022-12-09T17:12:35.135Z,-1.04
2022-12-09T17:15:01.904Z,-1.13
2022-12-09T17:17:28.734Z,-1.13
2022-12-09T17:19:55.639Z,-1.17
2022-12-09T17:22:22.563Z,-1.22
2022-12-09T17:24:49.728Z,-1.27
2022-12-09T17:27:17.784Z,-1.29
2022-12-09T17:29:46.255Z,-1.30
2022-12-09T17:32:13.751Z,-1.35
2022-12-09T17:34:40.515Z,-1.41
2022-12-09T17:37:07.377Z,-1.48
2022-12-09T17:39:34.442Z,-1.54
2022-12-09T17:42:01.463Z,-1.56
2022-12-09T17:44:29.636Z,-1.56
2022-12-09T17:46:56.473Z,-1.47
2022-12-09T17:49:23.435Z,-1.52
2022-12-09T17:51:50.058Z,-1.58
2022-12-09T17:54:16.721Z,-1.61
2022-12-09T17:56:43.462Z,-1.63
2022-12-09T17:59:14.314Z,-1.69
2022-12-09T18:01:44.178Z,-1.68
2022-12-09T18:04:11.400Z,-1.70
2022-12-09T18:06:40.032Z,-1.69
2022-12-09T18:09:08.703Z,-1.67
2022-12-09T18:11:36.054Z,-1.63
2022-12-09T18:14:03.613Z,-1.54
2022-12-09T18:16:30.594Z,-1.52
2022-12-09T18:19:02.660Z,-1.47
2022-12-09T18:21:29.341Z,-1.42
2022-12-09T18:23:56.128Z,-1.38
2022-12-09T18:26:28.587Z,-1.45
2022-12-09T18:28:57.739Z,-1.45
2022-12-09T18:31:27.417Z,-1.48
2022-12-09T18:33:54.174Z,-1.48
2022-12-09T18:36:25.850Z,-1.40
2022-12-09T18:38:53.988Z,-1.45
2022-12-09T18:41:22.841Z,-1.43
2022-12-09T18:43:51.938Z,-1.52
2022-12-09T18:46:25.212Z,-1.47
2022-12-09T18:48:57.390Z,-1.51
2022-12-09T18:51:26.454Z,-1.57
2022-12-09T18:53:53.453Z,-1.54
2022-12-09T18:56:20.301Z,-1.54
2022-12-09T18:59:05.790Z,-1.58
2022-12-09T19:01:34.008Z,-1.57
2022-12-09T19:04:02.671Z,-1.48
2022-12-09T19:06:32.828Z,-1.39
2022-12-09T19:09:02.088Z,-1.38
2022-12-09T19:11:31.160Z,-1.46
2022-12-09T19:13:58.667Z,-1.41
2022-12-09T19:16:29.661Z,-1.52
2022-12-09T19:18:57.381Z,-1.56
2022-12-09T19:21:25.606Z,-1.54
2022-12-09T19:23:54.757Z,-1.52
2022-12-09T19:26:24.965Z,-1.50
2022-12-09T19:28:53.279Z,-1.50
2022-12-09T19:31:22.457Z,-1.50
2022-12-09T19:33:50.139Z,-1.45
2022-12-09T19:36:19.976Z,-1.52
2022-12-09T19:38:47.021Z,-1.45
2022-12-09T19:41:15.248Z,-1.50
2022-12-09T19:43:42.369Z,-1.60
2022-12-09T19:46:12.384Z,-1.63
2022-12-09T19:48:41.916Z,-1.54
2022-12-09T19:51:10.457Z,-1.57
2022-12-09T19:53:38.046Z,-1.58
2022-12-09T19:56:06.664Z,-1.71
2022-12-09T19:58:38.787Z,-1.74
2022-12-09T20:01:10.036Z,-1.74
2022-12-09T20:03:37.305Z,-1.85
2022-12-09T20:06:06.612Z,-1.77
2022-12-09T20:08:34.320Z,-1.87
2022-12-09T20:11:01.058Z,-1.79
2022-12-09T20:13:31.835Z,-1.79
2022-12-09T20:16:06.274Z,-1.74
2022-12-09T20:18:33.944Z,-1.86
2022-12-09T20:21:03.652Z,-1.86
2022-12-09T20:23:30.853Z,-1.79
2022-12-09T20:26:05.832Z,-1.72
2022-12-09T20:28:35.613Z,-1.78
2022-12-09T20:31:05.251Z,-1.72
2022-12-09T20:33:32.119Z,-1.81
2022-12-09T20:36:05.435Z,-1.78
2022-12-09T20:38:32.336Z,-1.71
2022-12-09T20:41:03.558Z,-1.67
2022-12-09T20:43:30.412Z,-1.67
2022-12-09T20:45:57.182Z,-1.66
2022-12-09T20:48:25.358Z,-1.71
2022-12-09T20:50:52.974Z,-1.74
2022-12-09T20:53:19.761Z,-1.86
2022-12-09T20:55:55.547Z,-1.86
2022-12-09T20:58:22.497Z,-1.78
2022-12-09T21:00:49.515Z,-1.76
2022-12-09T21:03:16.693Z,-1.74
2022-12-09T21:05:44.853Z,-1.71
2022-12-09T21:08:11.811Z,-1.74
2022-12-09T21:10:38.695Z,-1.71
2022-12-09T21:13:05.717Z,-1.66
2022-12-09T21:15:32.374Z,-1.68
2022-12-09T21:17:59.087Z,-1.63
2022-12-09T21:20:26.646Z,-1.61
2022-12-09T21:23:17.402Z,-1.66
2022-12-09T21:25:43.011Z,-1.70
2022-12-09T21:28:11.618Z,-1.66
2022-12-09T21:30:38.883Z,-1.68
2022-12-09T21:33:06.129Z,-1.65
2022-12-09T21:35:32.827Z,-1.64
2022-12-09T21:38:00.913Z,-1.62
2022-12-09T21:40:27.776Z,-1.75
2022-12-09T21:42:54.598Z,-1.95
2022-12-09T21:45:21.564Z,-1.88
2022-12-09T21:47:48.207Z,-1.85
2022-12-09T21:50:14.911Z,-1.80
2022-12-09T21:52:42.852Z,-1.79
2022-12-09T21:55:11.663Z,-1.80
2022-12-09T21:57:38.609Z,-1.83
2022-12-09T22:00:06.613Z,-1.87
2022-12-09T22:02:33.540Z,-1.78
2022-12-09T22:05:00.287Z,-1.77
2022-12-09T22:07:26.969Z,-1.77
2022-12-09T22:09:56.764Z,-1.72
2022-12-09T22:12:25.422Z,-1.77
2022-12-09T22:14:52.135Z,-1.79
2022-12-09T22:17:18.950Z,-1.81
2022-12-09T22:19:45.705Z,-1.84
2022-12-09T22:22:12.477Z,-1.86
2022-12-09T22:24:39.257Z,-1.79
2022-12-09T22:27:05.960Z,-1.72
2022-12-09T22:29:33.993Z,-1.80
2022-12-09T22:32:00.986Z,-1.73
2022-12-09T22:34:27.660Z,-1.70
2022-12-09T22:36:55.260Z,-1.66
2022-12-09T22:39:21.959Z,-1.72
2022-12-09T22:41:49.001Z,-1.69
2022-12-09T22:44:18.432Z,-1.72
2022-12-09T22:46:46.567Z,-1.69
2022-12-09T22:49:15.127Z,-1.95
2022-12-09T22:51:42.826Z,-1.88
2022-12-09T22:54:10.238Z,-1.84
2022-12-09T22:56:38.761Z,-1.80
2022-12-09T22:59:05.857Z,-1.79
2022-12-09T23:01:35.605Z,-1.82
2022-12-09T23:04:04.981Z,-1.77
2022-12-09T23:06:31.614Z,-1.70
2022-12-09T23:08:58.478Z,-1.78
2022-12-09T23:11:27.394Z,-1.76
2022-12-09T23:13:54.683Z,-1.90
2022-12-09T23:16:23.582Z,-2.03
2022-12-09T23:18:51.247Z,-1.96
2022-12-09T23:21:21.964Z,-1.87
2022-12-09T23:23:51.607Z,-1.90
2022-12-09T23:26:19.844Z,-2.00
2022-12-09T23:28:50.135Z,-2.03
2022-12-09T23:31:18.663Z,-2.06
2022-12-09T23:33:47.440Z,-1.99
2022-12-09T23:36:16.600Z,-1.87
2022-12-09T23:38:48.228Z,-1.86
2022-12-09T23:41:20.104Z,-1.88
2022-12-09T23:43:48.603Z,-1.96
2022-12-09T23:46:17.354Z,-2.05
2022-12-09T23:48:45.095Z,-1.94
2022-12-09T23:51:12.959Z,-1.97
2022-12-09T23:53:40.804Z,-2.08
2022-12-09T23:56:11.276Z,-2.14
2022-12-09T23:58:38.284Z,-2.12
